Corinth, Maine
Current Conditions -  °F | °C
As of 2:53 AM on Monday 24 Nov 2014 (Local Time) from KBGR Reporting Station
Broken Clouds Broken Clouds  
Wind Chill: 38°   Ceiling: 9000
Heat Index: 38°   Visibility: 10mi
Dew Point: 37°   Wind: 0mph
Humidity: 97%   Direction: NA
Pressure: 30.09"   Gusts: NA
Location:  45°N, 69.02°W
Report Text: KBGR 240753Z 00000KT 10SM SCT055 BKN090 03/03 A3009 RMK AO2 SLP189 T00330028
Loading
Personal Weather Stations






























Interactive Weather Map New forecast layout! Learn more

10-Day Weather Forecast

Advertisements
Track Severe Weather on mobile